createdAt,value
2023-04-05T00:01:27.713Z,26.43
2023-04-05T00:04:01.125Z,24.50
2023-04-05T00:06:31.850Z,27.23
2023-04-05T00:09:01.866Z,23.70
2023-04-05T00:11:32.041Z,23.30
2023-04-05T00:14:02.202Z,27.43
2023-04-05T00:16:32.319Z,27.03
2023-04-05T00:19:02.366Z,19.97
2023-04-05T00:21:30.897Z,24.20
2023-04-05T00:23:59.895Z,31.67
2023-04-05T00:26:28.898Z,29.50
2023-04-05T00:28:57.422Z,26.87
2023-04-05T00:31:26.120Z,23.77
2023-04-05T00:33:56.318Z,22.23
2023-04-05T00:36:25.409Z,25.80
2023-04-05T00:38:53.940Z,24.53
2023-04-05T00:41:22.738Z,20.70
2023-04-05T00:43:51.367Z,23.73
2023-04-05T00:46:20.115Z,24.23
2023-04-05T00:48:49.490Z,22.97
2023-04-05T00:51:20.565Z,27.37
2023-04-05T00:53:53.107Z,23.70
2023-04-05T00:56:23.270Z,28.43
2023-04-05T00:58:53.583Z,22.00
2023-04-05T01:01:24.170Z,21.53
2023-04-05T01:04:00.171Z,24.97
2023-04-05T01:06:43.925Z,21.20
2023-04-05T01:09:24.669Z,18.63
2023-04-05T01:11:57.000Z,17.63
2023-04-05T01:14:25.707Z,19.53
2023-04-05T01:16:58.420Z,15.93
2023-04-05T01:19:30.352Z,15.03
2023-04-05T01:22:22.713Z,16.43
2023-04-05T01:25:03.040Z,15.50
2023-04-05T01:27:50.465Z,18.60
2023-04-05T01:30:24.224Z,18.37
2023-04-05T01:33:02.898Z,19.40
2023-04-05T01:35:39.063Z,15.07
2023-04-05T01:38:11.159Z,17.17
2023-04-05T01:40:40.053Z,19.40
2023-04-05T01:43:15.719Z,19.33
2023-04-05T01:45:47.250Z,19.03
2023-04-05T01:48:16.340Z,19.63
2023-04-05T01:50:45.014Z,19.53
2023-04-05T01:53:13.568Z,19.77
2023-04-05T01:55:42.089Z,17.53
2023-04-05T01:58:10.828Z,16.80
2023-04-05T02:00:39.556Z,15.63
2023-04-05T02:03:10.137Z,19.90
2023-04-05T02:05:38.668Z,17.03
2023-04-05T02:08:07.166Z,16.00
2023-04-05T02:10:35.786Z,21.63
2023-04-05T02:13:04.260Z,15.70
2023-04-05T02:15:34.354Z,19.70
2023-04-05T02:18:04.061Z,17.50
2023-04-05T02:20:34.849Z,17.50
2023-04-05T02:23:03.513Z,20.53
2023-04-05T02:25:32.003Z,17.00
2023-04-05T02:28:00.540Z,15.83
2023-04-05T02:30:29.300Z,15.83
2023-04-05T02:32:58.216Z,15.97
2023-04-05T02:35:26.898Z,18.00
2023-04-05T02:37:57.317Z,17.43
2023-04-05T02:40:25.993Z,17.80
2023-04-05T02:42:54.605Z,19.20
2023-04-05T02:45:28.110Z,21.00
2023-04-05T02:47:56.820Z,21.27
2023-04-05T02:50:25.756Z,19.20
2023-04-05T02:52:54.336Z,26.07
2023-04-05T02:55:25.085Z,21.30
2023-04-05T02:57:53.566Z,19.30
2023-04-05T03:00:22.699Z,20.27
2023-04-05T03:02:51.416Z,19.77
2023-04-05T03:05:20.989Z,19.23
2023-04-05T03:07:51.046Z,19.20
2023-04-05T03:10:22.590Z,16.53
2023-04-05T03:12:52.892Z,17.17
2023-04-05T03:15:21.611Z,22.77
2023-04-05T03:17:50.128Z,18.67
2023-04-05T03:20:18.744Z,17.03
2023-04-05T03:22:47.264Z,22.90
2023-04-05T03:25:19.241Z,21.10
2023-04-05T03:27:47.705Z,18.57
2023-04-05T03:30:17.840Z,19.47
2023-04-05T03:32:46.390Z,19.67
2023-04-05T03:35:17.182Z,26.53
2023-04-05T03:37:45.770Z,24.23
2023-04-05T03:40:15.493Z,21.40
2023-04-05T03:42:44.609Z,20.90
2023-04-05T03:45:13.340Z,22.63
2023-04-05T03:47:43.630Z,20.83
2023-04-05T03:50:12.468Z,17.33
2023-04-05T03:52:40.933Z,19.73
2023-04-05T03:55:10.138Z,18.70
2023-04-05T03:57:39.604Z,23.37
2023-04-05T04:00:14.624Z,20.87
2023-04-05T04:02:48.020Z,22.37
2023-04-05T04:05:18.249Z,21.77
2023-04-05T04:07:47.505Z,22.33
2023-04-05T04:10:18.754Z,17.77
2023-04-05T04:12:47.342Z,23.07
2023-04-05T04:15:16.089Z,22.37
2023-04-05T04:17:46.211Z,24.23
2023-04-05T04:20:15.571Z,19.37
2023-04-05T04:22:44.047Z,24.37
2023-04-05T04:25:15.118Z,22.50
2023-04-05T04:27:46.910Z,23.67
2023-04-05T04:30:16.897Z,24.17
2023-04-05T04:32:52.338Z,21.40
2023-04-05T04:35:25.306Z,21.77
2023-04-05T04:37:58.061Z,27.80
2023-04-05T04:40:29.602Z,28.67
2023-04-05T04:43:00.525Z,28.27
2023-04-05T04:45:29.297Z,29.80
2023-04-05T04:48:00.224Z,30.07
2023-04-05T04:50:29.214Z,23.97
2023-04-05T04:52:57.818Z,28.17
2023-04-05T04:55:27.748Z,24.47
2023-04-05T04:57:57.022Z,28.17
2023-04-05T05:00:26.294Z,27.10
2023-04-05T05:02:54.909Z,24.43
2023-04-05T05:05:24.818Z,24.90
2023-04-05T05:07:53.968Z,17.90
2023-04-05T05:10:22.720Z,20.43
2023-04-05T05:12:51.960Z,25.37
2023-04-05T05:15:21.068Z,25.87
2023-04-05T05:17:53.995Z,23.97
2023-04-05T05:20:22.837Z,20.03
2023-04-05T05:22:52.824Z,20.77
2023-04-05T05:25:21.875Z,21.53
2023-04-05T05:27:51.262Z,22.80
2023-04-05T05:30:20.963Z,20.30
2023-04-05T05:32:49.520Z,21.37
2023-04-05T05:35:18.172Z,22.53
2023-04-05T05:37:46.685Z,25.47
2023-04-05T05:40:16.920Z,21.57
2023-04-05T05:42:45.334Z,24.13
2023-04-05T05:45:14.027Z,19.13
2023-04-05T05:47:43.042Z,20.97
2023-04-05T05:50:15.543Z,26.77
2023-04-05T05:52:43.981Z,19.90
2023-04-05T05:55:12.413Z,20.80
2023-04-05T05:57:42.426Z,20.00
2023-04-05T06:00:11.975Z,18.70
2023-04-05T06:02:40.825Z,22.47
2023-04-05T06:05:09.814Z,19.97
2023-04-05T06:07:39.140Z,23.20
2023-04-05T06:10:08.611Z,26.60
2023-04-05T06:12:37.216Z,23.43
2023-04-05T06:15:08.367Z,20.97
2023-04-05T06:17:42.143Z,21.23
2023-04-05T06:20:11.932Z,21.80
2023-04-05T06:22:42.020Z,24.00
2023-04-05T06:25:13.182Z,21.20
2023-04-05T06:27:44.865Z,22.37
2023-04-05T06:30:16.153Z,23.53
2023-04-05T06:32:44.829Z,21.93
2023-04-05T06:35:14.680Z,18.63
2023-04-05T06:37:43.551Z,21.27
2023-04-05T06:40:12.591Z,23.10
2023-04-05T06:42:41.286Z,18.30
2023-04-05T06:45:10.951Z,24.27
2023-04-05T06:47:43.080Z,23.53
2023-04-05T06:50:12.243Z,19.23
2023-04-05T06:52:41.342Z,19.87
2023-04-05T06:55:10.566Z,24.07
2023-04-05T06:57:39.466Z,16.73
2023-04-05T07:00:11.928Z,19.40
2023-04-05T07:02:42.015Z,17.13
2023-04-05T07:05:10.924Z,24.47
2023-04-05T07:07:42.705Z,16.13
2023-04-05T07:10:12.608Z,22.23
2023-04-05T07:12:41.651Z,20.13
2023-04-05T07:15:12.412Z,23.80
2023-04-05T07:17:43.499Z,24.10
2023-04-05T07:20:14.453Z,16.50
2023-04-05T07:22:42.861Z,27.63
2023-04-05T07:25:12.076Z,17.87
2023-04-05T07:27:41.018Z,18.63
2023-04-05T07:30:14.869Z,16.33
2023-04-05T07:32:45.105Z,20.40
2023-04-05T07:35:14.055Z,15.07
2023-04-05T07:37:42.941Z,23.90
2023-04-05T07:40:13.172Z,21.00
2023-04-05T07:42:42.216Z,19.40
2023-04-05T07:45:11.791Z,19.67
2023-04-05T07:47:40.359Z,17.37
2023-04-05T07:50:12.436Z,18.77
2023-04-05T07:52:43.282Z,18.43
2023-04-05T07:55:12.501Z,22.27
2023-04-05T07:57:41.281Z,20.00
2023-04-05T08:00:13.707Z,18.17
2023-04-05T08:02:42.837Z,17.23
2023-04-05T08:05:13.034Z,31.73
2023-04-05T08:07:41.845Z,17.10
2023-04-05T08:10:11.184Z,15.10
2023-04-05T08:12:39.752Z,14.93
2023-04-05T08:15:09.093Z,13.13
2023-04-05T08:17:37.682Z,11.43
2023-04-05T08:20:07.702Z,13.70
2023-04-05T08:22:37.675Z,11.13
2023-04-05T08:25:06.805Z,7.83
2023-04-05T08:27:35.368Z,7.43
2023-04-05T08:30:04.288Z,8.60
2023-04-05T08:32:33.315Z,7.53
2023-04-05T08:35:02.048Z,9.27
2023-04-05T08:37:30.637Z,6.47
2023-04-05T08:40:00.888Z,12.07
2023-04-05T08:42:33.388Z,9.70
2023-04-05T08:45:04.963Z,9.27
2023-04-05T08:47:35.682Z,7.33
2023-04-05T08:50:05.704Z,12.17
2023-04-05T08:52:38.192Z,10.90
2023-04-05T08:55:09.027Z,10.67
2023-04-05T08:57:41.014Z,14.70
2023-04-05T09:00:14.366Z,10.57
2023-04-05T09:02:47.039Z,11.77
2023-04-05T09:05:17.971Z,10.27
2023-04-05T09:07:48.204Z,12.90
2023-04-05T09:10:20.898Z,9.40
2023-04-05T09:12:50.807Z,10.70
2023-04-05T09:15:24.538Z,9.70
2023-04-05T09:17:53.745Z,10.23
2023-04-05T09:20:22.416Z,12.20
2023-04-05T09:22:51.028Z,10.30
2023-04-05T09:25:40.035Z,9.17
2023-04-05T09:28:09.178Z,7.60
2023-04-05T09:30:38.394Z,6.90
2023-04-05T09:33:11.318Z,9.77
2023-04-05T09:35:39.826Z,6.47
2023-04-05T09:38:08.378Z,7.50
2023-04-05T09:40:45.692Z,7.43
2023-04-05T09:43:15.097Z,5.23
2023-04-05T09:45:46.298Z,5.77
2023-04-05T09:48:14.969Z,7.93
2023-04-05T09:50:43.888Z,6.27
2023-04-05T09:53:17.064Z,9.43
2023-04-05T09:55:47.098Z,7.97
2023-04-05T09:58:20.316Z,8.23
2023-04-05T10:01:00.004Z,8.33
2023-04-05T10:03:48.531Z,5.97
2023-04-05T10:06:18.198Z,9.20
2023-04-05T10:08:48.459Z,8.90
2023-04-05T10:11:20.099Z,8.27
2023-04-05T10:13:51.350Z,8.93
2023-04-05T10:16:23.110Z,8.23
2023-04-05T10:18:54.822Z,7.00
2023-04-05T10:21:25.403Z,5.70
2023-04-05T10:24:12.379Z,8.13
2023-04-05T10:26:54.372Z,7.13
2023-04-05T10:29:32.368Z,8.07
2023-04-05T10:32:09.215Z,27.57
2023-04-05T10:34:44.663Z,12.47
2023-04-05T10:37:24.898Z,9.80
2023-04-05T10:39:54.368Z,5.40
2023-04-05T10:42:28.685Z,7.87
2023-04-05T10:45:04.982Z,11.50
2023-04-05T10:47:38.431Z,11.03
2023-04-05T10:50:14.038Z,10.30
2023-04-05T10:52:43.934Z,6.77
2023-04-05T10:55:13.377Z,10.67
2023-04-05T10:57:44.280Z,7.57
2023-04-05T11:00:14.955Z,4.43
2023-04-05T11:02:44.146Z,10.80
2023-04-05T11:05:31.975Z,8.10
2023-04-05T11:08:04.194Z,8.27
2023-04-05T11:10:33.622Z,11.07
2023-04-05T11:13:08.966Z,8.23
2023-04-05T11:15:38.199Z,7.33
2023-04-05T11:18:09.006Z,7.37
2023-04-05T11:20:45.590Z,6.00
2023-04-05T11:23:16.144Z,7.20
2023-04-05T11:25:51.570Z,7.77
2023-04-05T11:28:27.756Z,7.77
2023-04-05T11:30:59.232Z,9.57
2023-04-05T11:34:10.283Z,6.83
2023-04-05T11:36:42.333Z,7.90
2023-04-05T11:39:29.887Z,6.20
2023-04-05T11:42:02.727Z,6.33
2023-04-05T11:44:42.563Z,5.93
2023-04-05T11:47:11.898Z,6.70
2023-04-05T11:49:42.584Z,6.67
2023-04-05T11:52:17.125Z,7.93
2023-04-05T11:54:47.873Z,9.13
2023-04-05T11:57:19.980Z,8.37
2023-04-05T11:59:51.908Z,6.53
2023-04-05T12:02:21.408Z,6.93
2023-04-05T12:04:57.759Z,7.10
2023-04-05T12:07:29.303Z,6.67
2023-04-05T12:10:16.346Z,8.37
2023-04-05T12:12:48.308Z,8.90
2023-04-05T12:15:19.796Z,6.93
2023-04-05T12:17:50.275Z,10.30
2023-04-05T12:20:21.171Z,7.87
2023-04-05T12:22:51.469Z,10.27
2023-04-05T12:25:21.252Z,5.23
2023-04-05T12:27:49.973Z,10.30
2023-04-05T12:30:21.391Z,8.47
2023-04-05T12:32:53.014Z,7.83
2023-04-05T12:35:24.763Z,7.27
2023-04-05T12:37:53.862Z,7.47
2023-04-05T12:40:24.819Z,9.00
2023-04-05T12:42:53.991Z,5.63
2023-04-05T12:45:25.356Z,6.53
2023-04-05T12:47:55.187Z,11.67
2023-04-05T12:50:31.756Z,7.17
2023-04-05T12:53:02.086Z,7.60
2023-04-05T12:55:32.183Z,8.60
2023-04-05T12:58:02.001Z,7.07
2023-04-05T13:00:33.039Z,5.73
2023-04-05T13:03:01.641Z,6.90
2023-04-05T13:05:33.609Z,4.97
2023-04-05T13:08:02.296Z,6.23
2023-04-05T13:10:31.190Z,28.87
2023-04-05T13:13:00.102Z,13.17
2023-04-05T13:15:28.782Z,6.23
2023-04-05T13:17:58.854Z,14.80
2023-04-05T13:20:27.495Z,9.23
2023-04-05T13:22:56.174Z,7.07
2023-04-05T13:25:24.873Z,7.67
2023-04-05T13:27:56.635Z,11.43
2023-04-05T13:30:25.237Z,7.73
2023-04-05T13:32:54.051Z,10.43
2023-04-05T13:35:24.155Z,13.25
2023-04-05T13:37:52.728Z,9.57
2023-04-05T13:40:21.320Z,6.33
2023-04-05T13:42:50.113Z,10.30
2023-04-05T13:45:18.812Z,15.23
2023-04-05T13:47:47.311Z,12.17
2023-04-05T13:50:16.176Z,11.67
2023-04-05T13:52:46.752Z,16.10
2023-04-05T13:55:15.528Z,10.37
2023-04-05T13:57:44.101Z,8.93
2023-04-05T14:00:14.066Z,10.47
2023-04-05T14:03:18.734Z,8.00
2023-04-05T14:06:02.353Z,8.50
2023-04-05T14:08:55.426Z,10.90
2023-04-05T14:11:29.422Z,6.33
2023-04-05T14:13:58.323Z,5.70
2023-04-05T14:16:27.049Z,7.43
2023-04-05T14:18:55.907Z,13.47
2023-04-05T14:21:26.134Z,10.37
2023-04-05T14:23:57.362Z,8.23
2023-04-05T14:26:27.192Z,7.47
2023-04-05T14:28:55.991Z,9.43
2023-04-05T14:31:26.654Z,8.17
2023-04-05T14:33:55.433Z,6.67
2023-04-05T14:36:24.440Z,6.63
2023-04-05T14:38:53.300Z,7.30
2023-04-05T14:41:23.259Z,10.27
2023-04-05T14:43:51.800Z,11.97
2023-04-05T14:46:20.459Z,6.77
2023-04-05T14:48:49.300Z,6.97
2023-04-05T14:51:18.315Z,8.27
2023-04-05T14:53:46.880Z,5.97
2023-04-05T14:56:15.782Z,8.43
2023-04-05T14:58:46.200Z,5.17
2023-04-05T15:01:15.145Z,5.73
2023-04-05T15:03:45.006Z,5.50
2023-04-05T15:06:13.845Z,4.47
2023-04-05T15:08:42.422Z,4.53
2023-04-05T15:11:11.664Z,5.27
2023-04-05T15:13:41.061Z,4.50
2023-04-05T15:16:11.925Z,4.20
2023-04-05T15:18:41.208Z,4.77
2023-04-05T15:21:11.550Z,6.07
2023-04-05T15:23:40.385Z,6.43
2023-04-05T15:26:08.892Z,6.83
2023-04-05T15:28:37.459Z,6.27
2023-04-05T15:31:06.498Z,7.50
2023-04-05T15:33:36.802Z,7.60
2023-04-05T15:36:09.213Z,4.50
2023-04-05T15:38:37.858Z,4.77
2023-04-05T15:41:06.585Z,4.73
2023-04-05T15:43:35.251Z,4.53
2023-04-05T15:46:05.140Z,9.67
2023-04-05T15:48:33.742Z,6.33
2023-04-05T15:52:03.358Z,13.57
2023-04-05T15:54:33.456Z,5.33
2023-04-05T15:57:02.156Z,3.87
2023-04-05T15:59:30.844Z,7.70
2023-04-05T16:01:59.545Z,7.27
2023-04-05T16:04:29.029Z,9.50
2023-04-05T16:06:58.343Z,6.43
2023-04-05T16:09:27.803Z,8.63
2023-04-05T16:11:59.415Z,5.00
2023-04-05T16:14:28.201Z,5.73
2023-04-05T16:16:56.992Z,5.43
2023-04-05T16:19:25.603Z,6.40
2023-04-05T16:21:54.703Z,7.03
2023-04-05T16:24:23.478Z,8.37
2023-04-05T16:26:52.655Z,6.43
2023-04-05T16:29:22.690Z,11.63
2023-04-05T16:31:51.421Z,5.80
2023-04-05T16:34:20.083Z,6.47
2023-04-05T16:36:48.852Z,8.63
2023-04-05T16:39:17.363Z,11.67
2023-04-05T16:41:45.951Z,6.67
2023-04-05T16:44:14.446Z,6.40
2023-04-05T16:46:46.313Z,9.17
2023-04-05T16:49:16.075Z,5.67
2023-04-05T16:51:44.582Z,5.83
2023-04-05T16:54:13.207Z,7.17
2023-04-05T16:56:41.795Z,5.83
2023-04-05T16:59:10.498Z,5.40
2023-04-05T17:01:39.651Z,8.93
2023-04-05T17:04:09.680Z,6.13
2023-04-05T17:06:38.422Z,9.13
2023-04-05T17:09:07.059Z,8.40
2023-04-05T17:11:35.775Z,11.20
2023-04-05T17:14:05.967Z,8.23
2023-04-05T17:16:34.610Z,14.57
2023-04-05T17:19:03.313Z,19.17
2023-04-05T17:21:36.088Z,27.47
2023-04-05T17:24:08.151Z,12.47
2023-04-05T17:26:36.796Z,6.83
2023-04-05T17:29:06.346Z,6.43
2023-04-05T17:31:35.686Z,7.73
2023-04-05T17:34:04.474Z,11.87
2023-04-05T17:36:35.479Z,34.67
2023-04-05T17:39:04.329Z,84.90
2023-04-05T17:41:33.090Z,191.47
2023-04-05T17:44:01.836Z,247.67
2023-04-05T17:46:42.787Z,75.17
2023-04-05T17:49:13.281Z,82.33
2023-04-05T17:51:43.253Z,288.60
2023-04-05T17:54:13.072Z,66.47
2023-04-05T17:56:41.773Z,42.87
2023-04-05T17:59:10.502Z,35.13
2023-04-05T18:01:39.951Z,29.97
2023-04-05T18:04:11.031Z,23.63
2023-04-05T18:06:42.659Z,61.83
2023-04-05T18:09:11.612Z,47.83
2023-04-05T18:11:40.155Z,49.03
2023-04-05T18:14:08.748Z,57.33
2023-04-05T18:16:37.490Z,53.63
2023-04-05T18:19:06.555Z,47.13
2023-04-05T18:21:37.353Z,44.60
2023-04-05T18:24:08.331Z,36.77
2023-04-05T18:26:37.083Z,34.50
2023-04-05T18:29:05.815Z,32.53
2023-04-05T18:31:34.640Z,37.30
2023-04-05T18:34:06.774Z,36.93
2023-04-05T18:36:36.270Z,60.90
2023-04-05T18:39:05.070Z,82.53
2023-04-05T18:41:35.419Z,69.90
2023-04-05T18:44:04.056Z,64.40
2023-04-05T18:46:32.762Z,51.80
2023-04-05T18:49:02.043Z,51.97
2023-04-05T18:51:31.323Z,52.90
2023-04-05T18:53:59.967Z,46.67
2023-04-05T18:56:28.977Z,55.07
2023-04-05T18:58:59.154Z,58.63
2023-04-05T19:01:27.858Z,64.07
2023-04-05T19:03:56.906Z,64.27
2023-04-05T19:06:26.468Z,55.37
2023-04-05T19:08:55.040Z,45.87
2023-04-05T19:11:25.090Z,46.20
2023-04-05T19:13:53.873Z,48.37
2023-04-05T19:16:23.974Z,60.53
2023-04-05T19:18:53.108Z,53.50
2023-04-05T19:21:21.899Z,46.63
2023-04-05T19:23:50.888Z,50.60
2023-04-05T19:26:21.865Z,55.30
2023-04-05T19:28:51.341Z,43.10
2023-04-05T19:31:20.051Z,45.30
2023-04-05T19:33:50.837Z,42.30
2023-04-05T19:36:19.523Z,102.07
2023-04-05T19:38:48.261Z,70.40
2023-04-05T19:41:16.961Z,66.37
2023-04-05T19:43:45.540Z,57.83
2023-04-05T19:46:19.251Z,55.70
2023-04-05T19:48:48.345Z,50.17
2023-04-05T19:51:20.613Z,42.37
2023-04-05T19:53:49.849Z,37.17
2023-04-05T19:56:21.279Z,29.83
2023-04-05T19:58:51.354Z,28.00
2023-04-05T20:01:34.142Z,35.83
2023-04-05T20:04:04.857Z,24.07
2023-04-05T20:06:35.611Z,24.47
2023-04-05T20:09:08.379Z,30.57
2023-04-05T20:11:37.143Z,29.80
2023-04-05T20:14:07.328Z,28.60
2023-04-05T20:16:37.116Z,24.07
2023-04-05T20:19:08.017Z,17.07
2023-04-05T20:21:38.742Z,14.43
2023-04-05T20:24:10.234Z,15.73
2023-04-05T20:26:40.971Z,15.07
2023-04-05T20:29:12.244Z,16.57
2023-04-05T20:31:41.405Z,21.17
2023-04-05T20:34:11.765Z,22.67
2023-04-05T20:36:48.458Z,23.77
2023-04-05T20:39:17.526Z,22.47
2023-04-05T20:41:46.866Z,21.07
2023-04-05T20:44:15.319Z,32.40
2023-04-05T20:46:43.944Z,32.60
2023-04-05T20:49:12.919Z,95.70
2023-04-05T20:51:43.317Z,76.40
2023-04-05T20:54:11.915Z,72.00
2023-04-05T20:56:41.263Z,184.10
2023-04-05T20:59:10.168Z,50.60
2023-04-05T21:01:39.209Z,39.37
2023-04-05T21:04:10.842Z,33.37
2023-04-05T21:06:40.027Z,29.53
2023-04-05T21:09:10.577Z,30.13
2023-04-05T21:11:39.723Z,28.37
2023-04-05T21:14:08.736Z,23.67
2023-04-05T21:16:37.386Z,21.77
2023-04-05T21:19:06.132Z,30.43
2023-04-05T21:21:34.974Z,77.03
2023-04-05T21:24:06.297Z,41.60
2023-04-05T21:26:36.249Z,329.07
2023-04-05T21:29:04.724Z,138.77
2023-04-05T21:31:33.241Z,263.90
2023-04-05T21:34:01.775Z,153.67
2023-04-05T21:36:30.264Z,90.50
2023-04-05T21:38:58.737Z,60.67
2023-04-05T21:41:27.536Z,73.73
2023-04-05T21:43:57.832Z,100.93
2023-04-05T21:46:26.390Z,337.73
2023-04-05T21:48:54.832Z,482.67
2023-04-05T21:51:23.517Z,296.80
2023-04-05T21:53:52.036Z,144.57
2023-04-05T21:56:20.892Z,309.53
2023-04-05T21:58:49.367Z,303.27
2023-04-05T22:01:19.427Z,245.03
2023-04-05T22:03:48.341Z,100.80
2023-04-05T22:06:16.859Z,67.60
2023-04-05T22:08:45.523Z,296.37
2023-04-05T22:11:14.081Z,469.57
2023-04-05T22:13:42.515Z,622.07
2023-04-05T22:16:10.940Z,242.73
2023-04-05T22:18:40.902Z,189.80
2023-04-05T22:21:09.467Z,179.40
2023-04-05T22:23:37.954Z,144.43
2023-04-05T22:26:06.395Z,160.57
2023-04-05T22:28:34.917Z,149.10
2023-04-05T22:31:03.769Z,334.97
2023-04-05T22:33:32.184Z,182.63
2023-04-05T22:36:03.508Z,134.73
2023-04-05T22:38:32.254Z,146.57
2023-04-05T22:41:00.843Z,185.57
2023-04-05T22:43:29.377Z,200.47
2023-04-05T22:45:57.940Z,186.53
2023-04-05T22:48:26.424Z,209.77
2023-04-05T22:50:54.926Z,181.20
2023-04-05T22:53:25.007Z,181.60
2023-04-05T22:55:53.445Z,185.73
2023-04-05T22:58:22.792Z,196.77
2023-04-05T23:00:53.950Z,211.57
2023-04-05T23:03:22.429Z,209.87
2023-04-05T23:05:52.403Z,212.60
2023-04-05T23:08:20.987Z,220.97
2023-04-05T23:10:51.013Z,188.10
2023-04-05T23:13:19.542Z,170.53
2023-04-05T23:15:48.047Z,161.17
2023-04-05T23:18:22.194Z,151.73
2023-04-05T23:20:50.708Z,131.43
2023-04-05T23:23:19.124Z,165.43
2023-04-05T23:25:47.681Z,205.93
2023-04-05T23:28:17.577Z,143.30
2023-04-05T23:30:46.088Z,136.13
2023-04-05T23:33:14.596Z,118.63
2023-04-05T23:35:44.236Z,136.57
2023-04-05T23:38:12.733Z,117.77
2023-04-05T23:40:41.177Z,139.03
2023-04-05T23:43:09.580Z,128.50
2023-04-05T23:45:39.548Z,131.07
2023-04-05T23:48:08.510Z,111.73
2023-04-05T23:50:37.092Z,93.97
2023-04-05T23:53:05.576Z,87.77
2023-04-05T23:55:35.816Z,95.90
2023-04-05T23:58:04.295Z,81.73
